createdAt,value
2022-10-06T00:01:14.066Z,25.25
2022-10-06T00:03:41.709Z,25.47
2022-10-06T00:06:11.060Z,25.35
2022-10-06T00:08:40.038Z,25.25
2022-10-06T00:11:12.236Z,25.22
2022-10-06T00:13:40.396Z,25.11
2022-10-06T00:16:13.123Z,25.09
2022-10-06T00:18:40.499Z,24.94
2022-10-06T00:21:07.806Z,24.86
2022-10-06T00:23:35.189Z,24.96
2022-10-06T00:26:02.556Z,24.82
2022-10-06T00:28:29.899Z,24.95
2022-10-06T00:31:01.963Z,24.77
2022-10-06T00:33:29.153Z,24.86
2022-10-06T00:35:58.355Z,24.59
2022-10-06T00:38:27.521Z,24.70
2022-10-06T00:40:56.253Z,24.82
2022-10-06T00:43:51.523Z,24.87
2022-10-06T00:46:26.333Z,24.84
2022-10-06T00:49:00.949Z,24.70
2022-10-06T00:51:31.091Z,24.76
2022-10-06T00:53:58.929Z,24.51
2022-10-06T00:56:27.638Z,24.57
2022-10-06T00:58:54.890Z,24.65
2022-10-06T01:01:22.173Z,24.60
2022-10-06T01:03:55.313Z,24.44
2022-10-06T01:06:22.385Z,24.51
2022-10-06T01:08:50.552Z,24.57
2022-10-06T01:11:17.785Z,24.63
2022-10-06T01:13:47.799Z,24.53
2022-10-06T01:16:25.491Z,24.46
2022-10-06T01:18:56.000Z,24.60
2022-10-06T01:21:35.037Z,24.38
2022-10-06T01:24:03.950Z,24.39
2022-10-06T01:26:34.514Z,24.37
2022-10-06T01:29:01.935Z,24.34
2022-10-06T01:31:29.758Z,24.42
2022-10-06T01:33:57.061Z,24.32
2022-10-06T01:36:24.437Z,24.36
2022-10-06T01:38:52.184Z,24.46
2022-10-06T01:41:19.859Z,24.51
2022-10-06T01:43:47.346Z,24.28
2022-10-06T01:46:15.547Z,24.38
2022-10-06T01:48:44.248Z,24.41
2022-10-06T01:51:16.982Z,24.44
2022-10-06T01:53:44.316Z,24.38
2022-10-06T01:56:11.747Z,24.50
2022-10-06T01:58:39.296Z,24.57
2022-10-06T02:01:09.194Z,24.42
2022-10-06T02:03:38.557Z,24.43
2022-10-06T02:06:09.411Z,24.27
2022-10-06T02:08:36.708Z,24.43
2022-10-06T02:11:10.651Z,24.40
2022-10-06T02:13:44.917Z,24.18
2022-10-06T02:16:14.429Z,24.24
2022-10-06T02:18:43.198Z,24.19
2022-10-06T02:21:21.386Z,24.16
2022-10-06T02:23:52.172Z,24.13
2022-10-06T02:26:19.472Z,24.28
2022-10-06T02:28:50.942Z,24.27
2022-10-06T02:31:24.462Z,24.29
2022-10-06T02:33:52.454Z,24.16
2022-10-06T02:36:20.195Z,24.20
2022-10-06T02:38:47.249Z,24.18
2022-10-06T02:41:14.670Z,24.20
2022-10-06T02:43:41.786Z,24.23
2022-10-06T02:46:14.721Z,24.14
2022-10-06T02:48:47.604Z,24.23
2022-10-06T02:51:18.569Z,24.21
2022-10-06T02:53:48.407Z,24.09
2022-10-06T02:56:25.987Z,24.15
2022-10-06T02:58:54.246Z,24.16
2022-10-06T03:01:30.667Z,23.84
2022-10-06T03:04:02.369Z,23.97
2022-10-06T03:06:32.741Z,24.01
2022-10-06T03:09:16.573Z,24.07
2022-10-06T03:11:51.148Z,23.95
2022-10-06T03:14:32.169Z,23.99
2022-10-06T03:16:59.859Z,23.88
2022-10-06T03:19:33.436Z,23.94
2022-10-06T03:22:01.391Z,23.97
2022-10-06T03:24:37.835Z,23.94
2022-10-06T03:27:05.395Z,23.87
2022-10-06T03:29:34.327Z,23.75
2022-10-06T03:32:05.439Z,23.87
2022-10-06T03:34:34.331Z,23.86
2022-10-06T03:37:06.074Z,23.74
2022-10-06T03:39:34.484Z,23.90
2022-10-06T03:42:02.320Z,23.80
2022-10-06T03:44:36.230Z,23.91
2022-10-06T03:47:04.243Z,23.81
2022-10-06T03:49:33.555Z,23.93
2022-10-06T03:52:00.816Z,23.58
2022-10-06T03:54:34.740Z,23.84
2022-10-06T03:57:04.798Z,23.73
2022-10-06T03:59:34.639Z,23.64
2022-10-06T04:02:06.310Z,23.49
2022-10-06T04:04:38.039Z,23.70
2022-10-06T04:07:09.883Z,23.72
2022-10-06T04:09:37.757Z,23.72
2022-10-06T04:12:21.356Z,23.83
2022-10-06T04:14:54.398Z,23.78
2022-10-06T04:17:25.200Z,23.75
2022-10-06T04:19:52.810Z,23.70
2022-10-06T04:22:20.621Z,23.76
2022-10-06T04:24:50.149Z,23.79
2022-10-06T04:27:29.517Z,23.87
2022-10-06T04:30:07.129Z,23.92
2022-10-06T04:32:41.031Z,23.92
2022-10-06T04:35:08.812Z,23.98
2022-10-06T04:37:45.350Z,23.98
2022-10-06T04:40:14.128Z,23.99
2022-10-06T04:42:41.708Z,24.01
2022-10-06T04:45:17.062Z,24.01
2022-10-06T04:47:48.435Z,24.00
2022-10-06T04:50:16.260Z,24.01
2022-10-06T04:53:06.628Z,23.95
2022-10-06T04:55:36.879Z,23.93
2022-10-06T04:58:04.784Z,23.79
2022-10-06T05:00:32.168Z,23.85
2022-10-06T05:03:01.933Z,23.80
2022-10-06T05:05:32.761Z,23.69
2022-10-06T05:08:02.784Z,23.77
2022-10-06T05:10:33.830Z,23.76
2022-10-06T05:13:07.969Z,23.78
2022-10-06T05:15:40.160Z,23.51
2022-10-06T05:18:07.452Z,23.67
2022-10-06T05:20:34.920Z,23.67
2022-10-06T05:23:10.270Z,23.46
2022-10-06T05:25:40.817Z,23.53
2022-10-06T05:28:09.110Z,23.49
2022-10-06T05:30:39.992Z,23.38
2022-10-06T05:33:08.032Z,23.33
2022-10-06T05:35:38.337Z,23.29
2022-10-06T05:38:12.053Z,23.23
2022-10-06T05:40:43.379Z,23.21
2022-10-06T05:43:11.001Z,23.13
2022-10-06T05:45:40.955Z,22.92
2022-10-06T05:48:10.415Z,23.01
2022-10-06T05:50:40.556Z,22.98
2022-10-06T05:53:08.020Z,23.10
2022-10-06T05:55:44.563Z,23.04
2022-10-06T05:58:21.046Z,23.07
2022-10-06T06:00:49.333Z,22.99
2022-10-06T06:03:17.110Z,23.17
2022-10-06T06:05:44.487Z,22.90
2022-10-06T06:08:22.499Z,23.16
2022-10-06T06:10:50.636Z,23.16
2022-10-06T06:13:29.200Z,23.28
2022-10-06T06:16:12.724Z,23.29
2022-10-06T06:18:46.944Z,23.32
2022-10-06T06:21:18.889Z,23.36
2022-10-06T06:23:50.656Z,23.19
2022-10-06T06:26:23.877Z,23.11
2022-10-06T06:28:52.600Z,23.13
2022-10-06T06:31:29.747Z,23.11
2022-10-06T06:34:00.413Z,23.25
2022-10-06T06:36:42.094Z,23.17
2022-10-06T06:39:16.776Z,23.18
2022-10-06T06:41:52.026Z,23.17
2022-10-06T06:44:41.827Z,23.31
2022-10-06T06:47:36.084Z,23.43
2022-10-06T06:50:16.452Z,23.26
2022-10-06T06:56:03.182Z,23.42
2022-10-06T06:58:33.600Z,23.40
2022-10-06T07:01:16.864Z,23.53
2022-10-06T07:03:58.624Z,23.55
2022-10-06T07:06:33.536Z,23.66
2022-10-06T07:09:07.188Z,23.65
2022-10-06T07:11:39.123Z,23.62
2022-10-06T07:14:13.103Z,23.59
2022-10-06T07:17:02.881Z,23.56
2022-10-06T07:19:49.413Z,23.47
2022-10-06T07:22:39.568Z,23.63
2022-10-06T07:25:40.507Z,23.76
2022-10-06T07:28:12.615Z,23.85
2022-10-06T07:30:41.851Z,23.68
2022-10-06T07:33:19.580Z,23.97
2022-10-06T07:35:51.871Z,23.94
2022-10-06T07:38:27.804Z,24.02
2022-10-06T07:41:28.989Z,24.06
2022-10-06T07:43:50.559Z,24.04
2022-10-06T07:46:24.271Z,24.23
2022-10-06T07:48:58.161Z,24.37
2022-10-06T07:51:27.514Z,24.37
2022-10-06T07:53:59.705Z,24.46
2022-10-06T07:56:47.266Z,24.40
2022-10-06T07:59:14.611Z,24.54
2022-10-06T08:01:44.488Z,24.50
2022-10-06T08:04:13.192Z,24.57
2022-10-06T08:06:42.218Z,24.71
2022-10-06T08:09:09.739Z,24.74
2022-10-06T08:11:37.591Z,24.77
2022-10-06T08:14:04.903Z,24.82
2022-10-06T08:16:32.462Z,24.77
2022-10-06T08:19:01.181Z,24.94
2022-10-06T08:21:36.930Z,24.90
2022-10-06T08:24:04.261Z,25.13
2022-10-06T08:26:33.484Z,25.09
2022-10-06T08:29:03.839Z,25.02
2022-10-06T08:31:32.893Z,25.07
2022-10-06T08:34:01.601Z,25.23
2022-10-06T08:36:31.836Z,25.40
2022-10-06T08:39:00.907Z,25.45
2022-10-06T08:41:48.861Z,25.35
2022-10-06T08:44:19.513Z,25.60
2022-10-06T08:47:03.032Z,25.70
2022-10-06T08:49:49.806Z,25.82
2022-10-06T08:52:35.937Z,26.20
2022-10-06T08:55:42.482Z,26.65
2022-10-06T08:58:32.375Z,27.27
2022-10-06T09:01:14.708Z,27.86
2022-10-06T09:03:48.903Z,27.99
2022-10-06T09:06:28.007Z,27.82
2022-10-06T09:09:04.683Z,27.60
2022-10-06T09:11:45.724Z,27.36
2022-10-06T09:14:33.576Z,27.30
2022-10-06T09:17:06.268Z,27.47
2022-10-06T09:19:58.809Z,27.27
2022-10-06T09:22:33.090Z,27.19
2022-10-06T09:25:15.740Z,27.05
2022-10-06T09:27:51.466Z,27.37
2022-10-06T09:30:19.574Z,27.26
2022-10-06T09:36:11.176Z,27.65
2022-10-06T09:38:57.510Z,27.55
2022-10-06T09:41:42.023Z,27.73
2022-10-06T09:44:52.380Z,27.60
2022-10-06T09:47:46.661Z,27.73
2022-10-06T09:50:17.065Z,28.34
2022-10-06T09:53:25.833Z,28.65
2022-10-06T09:56:00.010Z,29.10
2022-10-06T09:58:40.845Z,28.48
2022-10-06T10:01:17.817Z,28.79
2022-10-06T10:04:19.375Z,29.11
2022-10-06T10:06:53.560Z,29.31
2022-10-06T10:09:31.563Z,29.27
2022-10-06T10:12:30.533Z,29.15
2022-10-06T10:15:04.815Z,29.53
2022-10-06T10:17:43.611Z,29.59
2022-10-06T10:20:30.891Z,29.81
2022-10-06T10:23:05.747Z,29.98
2022-10-06T10:26:15.085Z,30.03
2022-10-06T10:29:04.519Z,30.13
2022-10-06T10:32:15.263Z,30.35
2022-10-06T10:35:17.033Z,30.67
2022-10-06T10:38:14.442Z,30.77
2022-10-06T10:40:54.092Z,30.77
2022-10-06T10:43:43.437Z,31.14
2022-10-06T10:46:30.716Z,31.15
2022-10-06T10:49:20.685Z,31.36
2022-10-06T10:52:09.558Z,31.56
2022-10-06T10:55:00.279Z,31.48
2022-10-06T10:57:41.278Z,32.00
2022-10-06T11:00:16.673Z,31.88
2022-10-06T11:02:44.823Z,31.87
2022-10-06T11:05:19.481Z,32.08
2022-10-06T11:08:17.649Z,32.32
2022-10-06T11:10:57.148Z,32.13
2022-10-06T11:13:42.749Z,32.43
2022-10-06T11:16:50.419Z,32.43
2022-10-06T11:19:56.637Z,32.70
2022-10-06T11:22:39.911Z,32.49
2022-10-06T11:25:21.056Z,32.91
2022-10-06T11:28:15.566Z,32.53
2022-10-06T11:30:55.091Z,32.69
2022-10-06T11:33:50.196Z,32.29
2022-10-06T11:36:46.222Z,32.75
2022-10-06T11:39:23.664Z,33.33
2022-10-06T11:42:35.655Z,32.90
2022-10-06T11:45:12.402Z,33.20
2022-10-06T11:48:11.220Z,33.13
2022-10-06T11:50:44.776Z,33.49
2022-10-06T11:53:37.328Z,33.32
2022-10-06T11:56:19.947Z,33.41
2022-10-06T11:58:56.204Z,33.54
2022-10-06T12:01:33.902Z,33.43
2022-10-06T12:04:10.462Z,33.74
2022-10-06T12:07:04.794Z,33.87
2022-10-06T12:09:51.003Z,33.89
2022-10-06T12:12:19.444Z,33.83
2022-10-06T12:18:05.077Z,34.00
2022-10-06T12:20:52.360Z,33.99
2022-10-06T12:23:42.905Z,33.99
2022-10-06T12:26:28.952Z,34.12
2022-10-06T12:29:16.450Z,34.27
2022-10-06T12:31:55.486Z,34.24
2022-10-06T12:34:50.209Z,34.41
2022-10-06T12:37:33.540Z,34.58
2022-10-06T12:40:38.289Z,34.38
2022-10-06T12:43:23.822Z,34.70
2022-10-06T12:46:19.788Z,34.85
2022-10-06T12:49:08.046Z,34.97
2022-10-06T12:51:39.303Z,34.97
2022-10-06T12:54:19.761Z,34.70
2022-10-06T12:57:01.593Z,35.11
2022-10-06T12:59:35.963Z,34.40
2022-10-06T13:02:20.569Z,34.61
2022-10-06T13:05:15.380Z,35.21
2022-10-06T13:07:59.424Z,35.10
2022-10-06T13:10:30.560Z,35.23
2022-10-06T13:13:00.607Z,35.20
2022-10-06T13:15:41.710Z,35.51
2022-10-06T13:18:18.582Z,35.38
2022-10-06T13:21:00.742Z,35.21
2022-10-06T13:23:29.860Z,35.90
2022-10-06T13:26:02.803Z,35.79
2022-10-06T13:28:38.539Z,35.69
2022-10-06T13:31:29.792Z,35.53
2022-10-06T13:34:11.311Z,35.53
2022-10-06T13:36:41.931Z,35.53
2022-10-06T13:39:16.047Z,35.37
2022-10-06T13:42:00.696Z,34.31
2022-10-06T13:44:41.876Z,34.33
2022-10-06T13:47:17.846Z,34.22
2022-10-06T13:50:04.369Z,34.00
2022-10-06T13:52:48.345Z,34.44
2022-10-06T13:55:21.385Z,34.37
2022-10-06T13:57:50.506Z,34.50
2022-10-06T14:00:24.683Z,34.58
2022-10-06T14:02:54.586Z,34.66
2022-10-06T14:05:32.385Z,34.57
2022-10-06T14:08:12.239Z,34.79
2022-10-06T14:10:59.917Z,34.85
2022-10-06T14:13:49.849Z,34.57
2022-10-06T14:16:26.432Z,33.55
2022-10-06T14:19:01.469Z,33.30
2022-10-06T14:21:45.211Z,32.79
2022-10-06T14:24:19.841Z,33.25
2022-10-06T14:26:51.413Z,32.62
2022-10-06T14:29:21.078Z,32.90
2022-10-06T14:31:49.688Z,32.31
2022-10-06T14:34:20.878Z,32.23
2022-10-06T14:36:54.186Z,32.04
2022-10-06T14:39:22.654Z,32.24
2022-10-06T14:41:50.124Z,32.01
2022-10-06T14:44:19.472Z,31.96
2022-10-06T14:46:51.278Z,31.97
2022-10-06T14:49:19.172Z,31.88
2022-10-06T14:51:48.613Z,31.67
2022-10-06T14:54:16.835Z,31.56
2022-10-06T14:56:44.402Z,31.29
2022-10-06T14:59:17.341Z,31.34
2022-10-06T15:01:46.175Z,31.12
2022-10-06T15:04:15.911Z,30.76
2022-10-06T15:07:02.326Z,31.03
2022-10-06T15:09:31.576Z,30.94
2022-10-06T15:12:03.213Z,30.82
2022-10-06T15:14:31.138Z,30.73
2022-10-06T15:17:00.494Z,30.84
2022-10-06T15:19:28.421Z,30.65
2022-10-06T15:23:06.594Z,30.89
2022-10-06T15:25:52.892Z,30.75
2022-10-06T15:28:38.783Z,30.53
2022-10-06T15:31:06.910Z,30.58
2022-10-06T15:33:37.657Z,30.55
2022-10-06T15:36:19.371Z,30.47
2022-10-06T15:38:47.649Z,29.98
2022-10-06T15:41:14.938Z,30.16
2022-10-06T15:43:59.634Z,29.79
2022-10-06T15:46:41.072Z,29.69
2022-10-06T15:49:24.888Z,29.58
2022-10-06T15:52:07.032Z,29.49
2022-10-06T15:54:38.513Z,29.50
2022-10-06T15:57:16.577Z,29.18
2022-10-06T15:59:46.504Z,29.26
2022-10-06T16:02:18.644Z,29.38
2022-10-06T16:05:15.260Z,29.35
2022-10-06T16:07:50.109Z,29.18
2022-10-06T16:10:21.527Z,28.98
2022-10-06T16:12:51.744Z,29.10
2022-10-06T16:15:19.234Z,28.89
2022-10-06T16:17:47.586Z,28.92
2022-10-06T16:20:20.744Z,28.66
2022-10-06T16:22:52.149Z,28.76
2022-10-06T16:25:19.765Z,28.81
2022-10-06T16:28:07.650Z,28.60
2022-10-06T16:30:44.671Z,28.57
2022-10-06T16:33:17.555Z,28.47
2022-10-06T16:36:00.911Z,28.46
2022-10-06T16:38:36.393Z,28.41
2022-10-06T16:41:05.988Z,28.19
2022-10-06T16:43:35.492Z,28.13
2022-10-06T16:46:24.242Z,28.02
2022-10-06T16:48:55.276Z,27.97
2022-10-06T16:51:37.827Z,28.00
2022-10-06T16:54:08.136Z,27.87
2022-10-06T16:56:37.300Z,27.54
2022-10-06T16:59:08.018Z,27.81
2022-10-06T17:01:37.578Z,27.82
2022-10-06T17:04:07.876Z,27.93
2022-10-06T17:06:40.038Z,27.64
2022-10-06T17:09:09.168Z,27.78
2022-10-06T17:11:36.612Z,27.93
2022-10-06T17:14:05.468Z,27.75
2022-10-06T17:16:36.222Z,27.75
2022-10-06T17:19:04.463Z,27.74
2022-10-06T17:21:45.752Z,27.76
2022-10-06T17:24:15.251Z,27.75
2022-10-06T17:26:44.403Z,27.80
2022-10-06T17:29:20.608Z,27.59
2022-10-06T17:31:51.220Z,27.34
2022-10-06T17:34:26.495Z,27.60
2022-10-06T17:37:02.756Z,27.60
2022-10-06T17:39:30.879Z,27.48
2022-10-06T17:41:58.099Z,27.54
2022-10-06T17:44:29.473Z,27.48
2022-10-06T17:47:01.975Z,27.38
2022-10-06T17:49:35.826Z,27.42
2022-10-06T17:52:03.049Z,27.36
2022-10-06T17:54:32.896Z,27.35
2022-10-06T17:57:00.759Z,27.33
2022-10-06T17:59:32.319Z,26.99
2022-10-06T18:02:02.967Z,27.09
2022-10-06T18:04:31.968Z,27.19
2022-10-06T18:06:59.312Z,27.08
2022-10-06T18:09:26.854Z,26.76
2022-10-06T18:11:58.251Z,27.04
2022-10-06T18:14:32.637Z,27.10
2022-10-06T18:17:09.911Z,27.05
2022-10-06T18:19:39.526Z,27.03
2022-10-06T18:22:14.750Z,26.97
2022-10-06T18:24:42.321Z,26.98
2022-10-06T18:27:09.719Z,26.95
2022-10-06T18:29:42.781Z,26.85
2022-10-06T18:37:56.739Z,26.85
2022-10-06T18:40:25.669Z,26.84
2022-10-06T18:42:55.135Z,26.82
2022-10-06T18:45:49.591Z,26.72
2022-10-06T18:48:49.213Z,26.81
2022-10-06T18:51:36.283Z,26.71
2022-10-06T18:54:25.608Z,26.76
2022-10-06T18:57:03.169Z,26.73
2022-10-06T18:59:32.332Z,26.72
2022-10-06T19:02:01.024Z,26.74
2022-10-06T19:04:31.007Z,26.75
2022-10-06T19:07:02.399Z,26.69
2022-10-06T19:09:32.780Z,26.74
2022-10-06T19:12:02.992Z,26.72
2022-10-06T19:14:40.851Z,26.76
2022-10-06T19:17:16.097Z,26.82
2022-10-06T19:19:45.994Z,26.72
2022-10-06T19:22:20.669Z,26.76
2022-10-06T19:24:53.373Z,26.78
2022-10-06T19:27:33.222Z,26.69
2022-10-06T19:30:06.870Z,26.49
2022-10-06T19:32:42.272Z,26.69
2022-10-06T19:35:13.651Z,26.61
2022-10-06T19:37:45.947Z,26.60
2022-10-06T19:40:16.113Z,26.57
2022-10-06T19:42:48.225Z,26.54
2022-10-06T19:45:31.036Z,26.35
2022-10-06T19:48:03.540Z,26.55
2022-10-06T19:50:46.849Z,26.54
2022-10-06T19:53:23.166Z,26.58
2022-10-06T19:58:33.578Z,26.58
2022-10-06T20:01:07.638Z,26.60
2022-10-06T20:03:45.047Z,26.64
2022-10-06T20:06:21.755Z,26.67
2022-10-06T20:08:49.886Z,26.64
2022-10-06T20:11:22.501Z,26.63
2022-10-06T20:13:50.537Z,26.64
2022-10-06T20:16:21.076Z,26.65
2022-10-06T20:18:50.785Z,26.57
2022-10-06T20:21:22.761Z,26.61
2022-10-06T20:23:56.886Z,26.55
2022-10-06T20:26:29.606Z,26.46
2022-10-06T20:28:59.361Z,26.54
2022-10-06T20:31:29.478Z,26.46
2022-10-06T20:33:59.726Z,26.48
2022-10-06T20:36:31.942Z,26.44
2022-10-06T20:39:19.436Z,26.45
2022-10-06T20:41:46.824Z,26.48
2022-10-06T20:44:14.013Z,26.49
2022-10-06T20:46:45.085Z,26.43
2022-10-06T20:49:17.529Z,26.46
2022-10-06T20:51:50.216Z,26.39
2022-10-06T20:54:31.084Z,26.37
2022-10-06T20:56:58.226Z,26.40
2022-10-06T20:59:25.350Z,26.34
2022-10-06T21:01:52.843Z,26.25
2022-10-06T21:04:24.083Z,26.34
2022-10-06T21:06:52.008Z,26.32
2022-10-06T21:09:23.202Z,26.34
2022-10-06T21:11:53.993Z,26.32
2022-10-06T21:14:25.383Z,26.30
2022-10-06T21:17:00.226Z,26.27
2022-10-06T21:19:39.369Z,26.29
2022-10-06T21:22:06.833Z,26.29
2022-10-06T21:24:37.349Z,26.27
2022-10-06T21:27:11.352Z,26.16
2022-10-06T21:30:29.290Z,26.15
2022-10-06T21:33:19.480Z,26.17
2022-10-06T21:36:06.743Z,26.23
2022-10-06T21:41:34.585Z,26.22
2022-10-06T21:44:15.542Z,26.04
2022-10-06T21:49:50.971Z,26.06
2022-10-06T21:52:27.491Z,26.03
2022-10-06T21:55:06.931Z,26.05
2022-10-06T21:57:37.321Z,26.07
2022-10-06T22:00:11.378Z,26.03
2022-10-06T22:02:49.435Z,25.98
2022-10-06T22:05:25.888Z,25.94
2022-10-06T22:07:56.998Z,25.83
2022-10-06T22:10:29.905Z,25.73
2022-10-06T22:13:19.290Z,25.64
2022-10-06T22:16:04.257Z,25.63
2022-10-06T22:18:43.583Z,25.53
2022-10-06T22:21:28.252Z,25.58
2022-10-06T22:24:06.908Z,25.41
2022-10-06T22:26:42.558Z,25.49
2022-10-06T22:29:18.747Z,25.42
2022-10-06T22:32:04.983Z,25.39
2022-10-06T22:34:34.381Z,25.39
2022-10-06T22:37:11.267Z,25.37
2022-10-06T22:39:39.018Z,25.37
2022-10-06T22:42:06.772Z,25.38
2022-10-06T22:44:34.112Z,25.38
2022-10-06T22:47:04.950Z,25.28
2022-10-06T22:49:40.128Z,25.37
2022-10-06T22:52:07.974Z,25.33
2022-10-06T22:54:35.439Z,25.36
2022-10-06T22:57:07.182Z,25.37
2022-10-06T22:59:40.590Z,25.38
2022-10-06T23:02:11.113Z,25.33
2022-10-06T23:04:39.090Z,25.37
2022-10-06T23:07:07.766Z,25.39
2022-10-06T23:09:38.628Z,25.38
2022-10-06T23:12:06.056Z,25.35
2022-10-06T23:14:36.438Z,25.39
2022-10-06T23:17:04.251Z,25.32
2022-10-06T23:19:35.848Z,25.28
2022-10-06T23:22:03.461Z,25.29
2022-10-06T23:24:30.975Z,25.29
2022-10-06T23:27:04.732Z,25.27
2022-10-06T23:29:35.565Z,25.20
2022-10-06T23:32:05.416Z,25.03
2022-10-06T23:34:35.198Z,25.12
2022-10-06T23:37:02.572Z,25.08
2022-10-06T23:39:30.041Z,24.93
2022-10-06T23:41:58.017Z,24.99
2022-10-06T23:44:27.291Z,25.09
2022-10-06T23:46:54.623Z,25.01
2022-10-06T23:49:21.958Z,24.99
2022-10-06T23:51:49.500Z,25.01
2022-10-06T23:54:19.043Z,24.96
2022-10-06T23:56:51.631Z,24.98
